Adams Field
KLIT : now visible

Airfield :











YOU CAN JOIN US ON...

 
LOGIN :

Register | Disclaimer

   EN    FR    IT 

 









Legend :    VFR   Marginal VFR   IFR   Intensive IFR   Very Intensive IFR
Visi :
Ceiling :
>= 8 km
>= 3000ft
5 to 8 km
1000 to 3000 ft
1500m to 5 km
500 to 1000 ft
800 to 1500m
200 to 500 ft
< 800m
< 200 ft
Symbols :   Thunderstorms  Fog  Heavy snow  Heavy precipitations  Wind > 20 kt






- Airport Elevation : 262 ft
- IATA code : LIT


KLIT - Adams Field

CURRENT METAR :
  • 240553Z 34003KT 10SM OVC015 07/00 A3009 RMK AO2 SLP194 T00670000 10072 20067 400780000 58005

EXPIRED METARs :
  • 240453Z 00000KT 10SM OVC020 07/M01 A3010 RMK AO2 SLP196 T00671006
  • 240353Z 10005KT 10SM OVC022 07/M01 A3011 RMK AO2 SLP199 T00671011

TAF KLIT
Valid from the 24 at 06:00 until the 25 at 06:00 UTC


240538Z 2406/2506 11005KT P6SM VCSH OVC020
FM241200 VRB03KT P6SM VCSH SCT007 OVC012
TEMPO 2412/2416 5SM BR OVC007
FM241800 07005KT P6SM OVC015
FM250100 11006KT 4SM -SHRA BR VCTS OVC012CB
KZME FIR / North America



MET'MAP, your aeronautical weather chart ! - Copyright ORBIFLY December 2007 - Disclaimer

ORBIFLY MET'MAP TEAM :

Programming & Development : Alexandra Zaïnal
Concept & original design : Baudouin d'Aumeries
Assistance for programming : Marc-Olivier Méhu
Technical & hardware support : Manuel Goepfert

Contact : metmap@orbifly.com




SOURCES & CREDITS :

   NOAA       Earth
Advisory